createdAt,value
2018-03-16T00:02:25.028Z,4.78
2018-03-16T00:04:53.364Z,4.54
2018-03-16T00:07:21.712Z,4.65
2018-03-16T00:09:50.028Z,4.67
2018-03-16T00:12:18.345Z,4.79
2018-03-16T00:14:46.716Z,4.90
2018-03-16T00:17:15.974Z,4.75
2018-03-16T00:19:44.308Z,4.60
2018-03-16T00:25:22.863Z,4.44
2018-03-16T00:27:51.976Z,4.57
2018-03-16T00:30:20.500Z,4.30
2018-03-16T00:32:48.840Z,4.34
2018-03-16T00:35:17.641Z,4.20
2018-03-16T00:37:45.960Z,4.26
2018-03-16T00:40:14.366Z,4.21
2018-03-16T00:42:42.987Z,4.40
2018-03-16T00:45:11.320Z,4.55
2018-03-16T00:47:40.405Z,4.31
2018-03-16T00:50:08.768Z,4.39
2018-03-16T00:52:37.102Z,4.47
2018-03-16T00:55:05.460Z,4.59
2018-03-16T00:57:34.576Z,4.27
2018-03-16T01:00:02.876Z,4.37
2018-03-16T01:02:31.190Z,4.40
2018-03-16T01:04:59.771Z,4.43
2018-03-16T01:07:28.123Z,4.48
2018-03-16T01:09:56.444Z,4.24
2018-03-16T01:12:26.203Z,4.52
2018-03-16T01:14:54.641Z,4.32
2018-03-16T01:17:22.969Z,4.24
2018-03-16T01:19:51.332Z,4.18
2018-03-16T01:22:19.697Z,4.22
2018-03-16T01:24:48.028Z,4.31
2018-03-16T01:27:16.507Z,4.33
2018-03-16T01:29:44.825Z,4.18
2018-03-16T01:32:13.919Z,4.42
2018-03-16T01:34:42.306Z,4.20
2018-03-16T01:37:10.641Z,4.36
2018-03-16T01:39:38.999Z,4.41
2018-03-16T01:42:07.358Z,4.41
2018-03-16T01:44:35.685Z,4.30
2018-03-16T01:47:04.009Z,4.39
2018-03-16T01:49:32.846Z,4.34
2018-03-16T01:52:01.157Z,4.30
2018-03-16T01:54:30.285Z,4.38
2018-03-16T01:56:58.664Z,4.21
2018-03-16T01:59:26.978Z,4.28
2018-03-16T02:01:55.296Z,4.20
2018-03-16T02:04:23.639Z,4.11
2018-03-16T02:06:51.953Z,3.87
2018-03-16T02:09:20.256Z,4.11
2018-03-16T02:11:49.086Z,4.21
2018-03-16T02:14:17.413Z,4.15
2018-03-16T02:16:45.722Z,4.34
2018-03-16T02:19:14.057Z,4.43
2018-03-16T02:21:42.444Z,4.30
2018-03-16T02:24:10.792Z,4.09
2018-03-16T02:26:40.161Z,4.14
2018-03-16T02:29:08.466Z,4.08
2018-03-16T02:31:36.785Z,4.05
2018-03-16T02:34:05.428Z,4.22
2018-03-16T02:36:34.541Z,4.26
2018-03-16T02:39:03.622Z,4.29
2018-03-16T02:41:31.936Z,4.34
2018-03-16T02:44:00.275Z,4.38
2018-03-16T02:46:29.376Z,4.56
2018-03-16T02:48:58.533Z,4.67
2018-03-16T02:51:26.840Z,4.73
2018-03-16T02:53:55.149Z,4.52
2018-03-16T02:56:23.641Z,4.33
2018-03-16T02:58:51.987Z,4.29
2018-03-16T03:01:20.312Z,4.29
2018-03-16T03:03:49.045Z,4.11
2018-03-16T03:06:17.380Z,4.21
2018-03-16T03:08:45.696Z,3.99
2018-03-16T03:11:14.048Z,4.17
2018-03-16T03:13:42.353Z,4.25
2018-03-16T03:16:10.655Z,4.43
2018-03-16T03:18:39.473Z,4.72
2018-03-16T03:21:07.797Z,4.57
2018-03-16T03:23:36.092Z,4.45
2018-03-16T03:26:04.417Z,4.44
2018-03-16T03:28:32.754Z,4.27
2018-03-16T03:31:01.828Z,4.33
2018-03-16T03:33:30.208Z,4.47
2018-03-16T03:35:58.539Z,4.39
2018-03-16T03:38:26.866Z,4.39
2018-03-16T03:40:55.725Z,4.19
2018-03-16T03:43:24.032Z,4.30
2018-03-16T03:45:52.342Z,4.31
2018-03-16T03:48:21.424Z,4.04
2018-03-16T03:50:49.712Z,3.87
2018-03-16T03:53:18.797Z,4.01
2018-03-16T03:55:47.891Z,3.95
2018-03-16T03:58:16.225Z,4.16
2018-03-16T04:00:44.548Z,4.18
2018-03-16T04:03:12.961Z,4.22
2018-03-16T04:05:41.320Z,3.86
2018-03-16T04:08:10.441Z,3.83
2018-03-16T04:10:38.777Z,3.79
2018-03-16T04:13:07.869Z,3.95
2018-03-16T04:15:36.233Z,4.09
2018-03-16T04:18:04.956Z,3.91
2018-03-16T04:20:33.258Z,3.89
2018-03-16T04:23:01.756Z,4.23
2018-03-16T04:25:30.424Z,4.20
2018-03-16T04:27:58.764Z,4.50
2018-03-16T04:30:27.854Z,4.58
2018-03-16T04:32:56.206Z,4.48
2018-03-16T04:35:24.535Z,4.04
2018-03-16T04:37:52.852Z,3.94
2018-03-16T04:40:21.228Z,3.82
2018-03-16T04:42:49.552Z,3.99
2018-03-16T04:45:17.875Z,4.08
2018-03-16T04:47:46.273Z,3.93
2018-03-16T04:50:14.596Z,3.68
2018-03-16T04:52:42.923Z,3.38
2018-03-16T04:55:11.510Z,3.59
2018-03-16T04:57:39.836Z,3.78
2018-03-16T05:00:08.176Z,3.66
2018-03-16T05:02:36.517Z,3.65
2018-03-16T05:05:05.594Z,3.60
2018-03-16T05:07:34.670Z,3.57
2018-03-16T05:10:03.128Z,3.69
2018-03-16T05:12:31.434Z,3.58
2018-03-16T05:14:59.739Z,3.60
2018-03-16T05:17:28.844Z,3.69
2018-03-16T05:19:57.148Z,3.78
2018-03-16T05:22:25.469Z,4.11
2018-03-16T05:24:53.804Z,3.94
2018-03-16T05:27:22.151Z,3.76
2018-03-16T05:29:51.245Z,3.38
2018-03-16T05:32:20.821Z,3.68
2018-03-16T05:34:49.160Z,3.73
2018-03-16T05:37:17.514Z,4.02
2018-03-16T05:39:46.644Z,4.20
2018-03-16T05:42:14.990Z,3.95
2018-03-16T05:44:43.330Z,3.71
2018-03-16T05:47:11.802Z,3.45
2018-03-16T05:49:40.157Z,3.48
2018-03-16T05:52:08.744Z,3.41
2018-03-16T05:54:37.153Z,3.50
2018-03-16T05:57:05.515Z,3.60
2018-03-16T05:59:33.873Z,3.54
2018-03-16T06:02:02.227Z,3.76
2018-03-16T06:04:30.559Z,3.62
2018-03-16T06:06:58.880Z,3.50
2018-03-16T06:09:27.639Z,3.75
2018-03-16T06:11:55.975Z,3.64
2018-03-16T06:14:24.299Z,3.19
2018-03-16T06:16:52.729Z,3.34
2018-03-16T06:19:21.171Z,3.58
2018-03-16T06:21:49.480Z,3.75
2018-03-16T06:24:17.817Z,3.96
2018-03-16T06:26:46.120Z,4.02
2018-03-16T06:29:15.293Z,3.78
2018-03-16T06:31:43.901Z,3.48
2018-03-16T06:34:12.969Z,3.28
2018-03-16T06:36:41.285Z,3.56
2018-03-16T06:39:09.673Z,3.44
2018-03-16T06:41:37.988Z,3.54
2018-03-16T06:44:06.304Z,3.46
2018-03-16T06:46:35.411Z,3.56
2018-03-16T06:49:04.559Z,3.42
2018-03-16T06:51:32.864Z,3.59
2018-03-16T06:54:01.230Z,3.36
2018-03-16T06:56:29.575Z,3.16
2018-03-16T06:58:57.892Z,3.35
2018-03-16T07:01:26.318Z,3.45
2018-03-16T07:03:54.646Z,3.55
2018-03-16T07:06:22.987Z,3.50
2018-03-16T07:08:51.346Z,3.43
2018-03-16T07:11:19.687Z,3.47
2018-03-16T07:13:47.996Z,3.53
2018-03-16T07:16:16.368Z,3.33
2018-03-16T07:18:45.441Z,3.39
2018-03-16T07:21:13.769Z,3.39
2018-03-16T07:23:42.295Z,3.07
2018-03-16T07:26:10.607Z,3.02
2018-03-16T07:28:38.943Z,3.30
2018-03-16T07:31:08.067Z,3.35
2018-03-16T07:33:37.193Z,3.62
2018-03-16T07:36:05.520Z,3.63
2018-03-16T07:38:33.918Z,3.17
2018-03-16T07:41:03.040Z,3.06
2018-03-16T07:43:32.223Z,3.24
2018-03-16T07:46:04.412Z,3.42
2018-03-16T07:48:32.759Z,3.46
2018-03-16T07:51:01.061Z,3.37
2018-03-16T07:53:30.191Z,2.91
2018-03-16T07:55:58.603Z,2.94
2018-03-16T07:58:26.950Z,3.22
2018-03-16T08:00:55.390Z,3.22
2018-03-16T08:03:23.665Z,3.34
2018-03-16T08:05:52.755Z,3.40
2018-03-16T08:08:21.938Z,3.62
2018-03-16T08:10:50.320Z,3.69
2018-03-16T08:13:18.656Z,3.11
2018-03-16T08:15:46.997Z,3.01
2018-03-16T08:18:15.346Z,3.39
2018-03-16T08:20:43.707Z,3.17
2018-03-16T08:23:12.067Z,3.08
2018-03-16T08:25:40.421Z,3.21
2018-03-16T08:28:09.594Z,2.93
2018-03-16T08:30:38.274Z,2.90
2018-03-16T08:33:06.570Z,3.13
2018-03-16T08:35:34.930Z,3.21
2018-03-16T08:38:03.249Z,3.72
2018-03-16T08:40:31.614Z,3.64
2018-03-16T08:43:00.013Z,3.34
2018-03-16T08:45:28.380Z,2.96
2018-03-16T08:47:56.710Z,3.28
2018-03-16T08:50:25.033Z,3.31
2018-03-16T08:52:54.345Z,3.32
2018-03-16T08:55:22.684Z,3.40
2018-03-16T08:57:50.986Z,3.54
2018-03-16T09:00:19.383Z,3.68
2018-03-16T09:02:47.752Z,3.90
2018-03-16T09:05:16.043Z,3.61
2018-03-16T09:07:45.049Z,3.12
2018-03-16T09:10:13.365Z,3.47
2018-03-16T09:12:41.719Z,3.38
2018-03-16T09:15:10.096Z,3.33
2018-03-16T09:17:38.446Z,3.47
2018-03-16T09:20:06.790Z,3.67
2018-03-16T09:22:35.184Z,3.24
2018-03-16T09:25:04.309Z,3.17
2018-03-16T09:27:32.635Z,3.48
2018-03-16T09:30:00.977Z,3.47
2018-03-16T09:32:29.289Z,3.41
2018-03-16T09:34:57.604Z,3.21
2018-03-16T09:37:26.317Z,3.53
2018-03-16T09:39:54.645Z,3.43
2018-03-16T09:42:23.019Z,3.42
2018-03-16T09:44:51.414Z,3.03
2018-03-16T09:47:20.489Z,3.35
2018-03-16T09:49:49.572Z,3.45
2018-03-16T09:52:17.915Z,3.38
2018-03-16T09:55:03.854Z,3.48
2018-03-16T09:57:32.546Z,3.68
2018-03-16T10:00:00.861Z,3.33
2018-03-16T10:02:29.206Z,3.33
2018-03-16T10:04:57.550Z,3.63
2018-03-16T10:07:25.913Z,3.76
2018-03-16T10:09:54.187Z,3.93
2018-03-16T10:12:22.540Z,3.50
2018-03-16T10:14:51.615Z,3.59
2018-03-16T10:17:19.964Z,3.85
2018-03-16T10:19:48.690Z,3.84
2018-03-16T10:22:17.073Z,3.75
2018-03-16T10:24:46.160Z,4.07
2018-03-16T10:27:14.470Z,3.76
2018-03-16T10:29:42.823Z,3.71
2018-03-16T10:32:11.146Z,3.49
2018-03-16T10:34:39.493Z,3.43
2018-03-16T10:37:08.675Z,3.70
2018-03-16T10:39:37.010Z,4.06
2018-03-16T10:42:05.483Z,3.80
2018-03-16T10:44:33.962Z,3.64
2018-03-16T10:47:02.318Z,3.64
2018-03-16T10:49:31.444Z,3.48
2018-03-16T10:51:59.769Z,3.33
2018-03-16T10:54:28.104Z,3.61
2018-03-16T10:56:57.147Z,3.89
2018-03-16T10:59:26.242Z,3.80
2018-03-16T11:01:56.537Z,3.60
2018-03-16T11:04:30.005Z,3.79
2018-03-16T11:07:03.750Z,4.05
2018-03-16T11:09:32.234Z,4.05
2018-03-16T11:12:00.786Z,4.02
2018-03-16T11:14:29.094Z,4.26
2018-03-16T11:16:57.535Z,4.02
2018-03-16T11:19:25.866Z,3.99
2018-03-16T11:21:54.655Z,3.68
2018-03-16T11:24:24.166Z,3.93
2018-03-16T11:26:52.479Z,4.30
2018-03-16T11:29:20.878Z,3.92
2018-03-16T11:31:49.227Z,3.99
2018-03-16T11:34:17.567Z,3.87
2018-03-16T11:36:45.912Z,3.89
2018-03-16T11:39:14.256Z,4.21
2018-03-16T11:41:42.566Z,4.07
2018-03-16T11:44:10.884Z,4.10
2018-03-16T11:46:39.701Z,3.85
2018-03-16T11:49:08.055Z,3.78
2018-03-16T11:51:37.124Z,4.13
2018-03-16T11:54:05.494Z,4.28
2018-03-16T11:56:33.838Z,4.17
2018-03-16T11:59:02.136Z,4.11
2018-03-16T12:01:31.242Z,3.87
2018-03-16T12:03:59.584Z,3.60
2018-03-16T12:06:28.750Z,3.76
2018-03-16T12:08:57.155Z,3.93
2018-03-16T12:11:26.225Z,3.71
2018-03-16T12:13:54.589Z,3.56
2018-03-16T12:16:22.950Z,3.47
2018-03-16T12:18:51.315Z,3.65
2018-03-16T12:21:19.650Z,3.64
2018-03-16T12:23:47.997Z,3.44
2018-03-16T12:26:16.330Z,3.66
2018-03-16T12:28:49.888Z,3.80
2018-03-16T12:31:14.068Z,3.76
2018-03-16T12:33:42.360Z,3.88
2018-03-16T12:36:10.717Z,3.98
2018-03-16T12:38:39.303Z,3.96
2018-03-16T12:41:07.604Z,3.89
2018-03-16T12:43:36.040Z,3.58
2018-03-16T12:46:04.394Z,3.45
2018-03-16T12:48:33.489Z,3.76
2018-03-16T12:51:02.586Z,3.49
2018-03-16T12:53:31.065Z,3.38
2018-03-16T12:56:00.182Z,3.34
2018-03-16T12:58:28.507Z,3.47
2018-03-16T13:00:56.920Z,3.36
2018-03-16T13:03:26.008Z,3.12
2018-03-16T13:05:55.109Z,3.00
2018-03-16T13:08:24.244Z,3.14
2018-03-16T13:10:52.657Z,2.99
2018-03-16T13:13:20.965Z,3.09
2018-03-16T13:15:50.776Z,3.33
2018-03-16T13:18:19.878Z,3.50
2018-03-16T13:20:48.186Z,3.38
2018-03-16T13:23:16.620Z,3.50
2018-03-16T13:25:44.912Z,3.72
2018-03-16T13:28:13.286Z,3.41
2018-03-16T13:30:42.388Z,3.20
2018-03-16T13:33:11.492Z,3.26
2018-03-16T13:35:39.829Z,3.54
2018-03-16T13:38:08.318Z,3.55
2018-03-16T13:40:36.640Z,3.78
2018-03-16T13:43:04.958Z,3.41
2018-03-16T13:45:34.141Z,3.36
2018-03-16T13:48:02.553Z,3.20
2018-03-16T13:50:30.916Z,3.50
2018-03-16T13:52:59.517Z,3.51
2018-03-16T13:55:30.819Z,3.66
2018-03-16T13:57:59.180Z,3.62
2018-03-16T14:00:28.137Z,3.94
2018-03-16T14:02:56.447Z,3.75
2018-03-16T14:05:24.772Z,3.91
2018-03-16T14:07:53.229Z,3.69
2018-03-16T14:10:21.563Z,3.64
2018-03-16T14:12:49.927Z,3.86
2018-03-16T14:15:18.278Z,3.51
2018-03-16T14:17:46.615Z,3.50
2018-03-16T14:20:15.717Z,3.52
2018-03-16T14:22:44.184Z,3.55
2018-03-16T14:25:13.270Z,3.20
2018-03-16T14:27:41.618Z,3.05
2018-03-16T14:30:10.250Z,3.12
2018-03-16T14:32:39.328Z,3.25
2018-03-16T14:35:07.622Z,3.23
2018-03-16T14:37:36.036Z,3.34
2018-03-16T14:40:04.404Z,3.33
2018-03-16T14:42:32.767Z,3.34
2018-03-16T14:45:01.434Z,3.20
2018-03-16T14:47:29.770Z,3.23
2018-03-16T14:49:58.585Z,3.29
2018-03-16T14:52:26.969Z,3.20
2018-03-16T14:54:55.306Z,3.20
2018-03-16T14:57:23.596Z,2.92
2018-03-16T14:59:51.977Z,3.11
2018-03-16T15:02:20.462Z,2.82
2018-03-16T15:04:48.758Z,2.95
2018-03-16T15:07:17.567Z,3.12
2018-03-16T15:09:46.652Z,3.36
2018-03-16T15:12:14.952Z,3.21
2018-03-16T15:14:44.148Z,3.10
2018-03-16T15:17:13.251Z,3.29
2018-03-16T15:19:42.417Z,3.53
2018-03-16T15:22:10.948Z,3.71
2018-03-16T15:24:39.418Z,3.67
2018-03-16T15:27:07.781Z,3.66
2018-03-16T15:29:37.338Z,3.35
2018-03-16T15:32:05.786Z,3.37
2018-03-16T15:34:34.380Z,3.28
2018-03-16T15:37:03.050Z,3.23
2018-03-16T15:39:31.549Z,3.11
2018-03-16T15:41:59.981Z,3.05
2018-03-16T15:44:28.975Z,2.92
2018-03-16T15:46:57.361Z,3.01
2018-03-16T15:49:25.788Z,3.21
2018-03-16T15:51:54.629Z,2.96
2018-03-16T15:54:23.005Z,2.96
2018-03-16T15:56:51.368Z,2.93
2018-03-16T15:59:19.953Z,2.95
2018-03-16T16:01:48.729Z,2.87
2018-03-16T16:04:17.121Z,2.94
2018-03-16T16:06:45.530Z,2.75
2018-03-16T16:09:13.896Z,2.85
2018-03-16T16:11:42.351Z,3.04
2018-03-16T16:14:11.278Z,3.27
2018-03-16T16:16:39.660Z,3.10
2018-03-16T16:19:08.797Z,3.12
2018-03-16T16:21:37.549Z,3.19
2018-03-16T16:24:05.914Z,2.99
2018-03-16T16:26:34.306Z,2.94
2018-03-16T16:29:02.778Z,2.84
2018-03-16T16:31:31.130Z,2.86
2018-03-16T16:33:59.617Z,2.69
2018-03-16T16:36:28.088Z,2.77
2018-03-16T16:38:56.446Z,2.67
2018-03-16T16:41:24.794Z,2.58
2018-03-16T16:43:53.265Z,2.80
2018-03-16T16:46:21.651Z,2.75
2018-03-16T16:48:50.123Z,2.56
2018-03-16T16:51:18.529Z,2.42
2018-03-16T16:53:46.954Z,2.50
2018-03-16T16:56:15.389Z,2.70
2018-03-16T16:58:44.937Z,2.70
2018-03-16T17:01:13.281Z,2.67
2018-03-16T17:03:42.374Z,2.74
2018-03-16T17:06:10.716Z,2.89
2018-03-16T17:08:39.059Z,2.56
2018-03-16T17:11:07.374Z,2.38
2018-03-16T17:13:35.744Z,2.38
2018-03-16T17:16:04.865Z,2.57
2018-03-16T17:18:33.200Z,2.71
2018-03-16T17:21:01.789Z,2.79
2018-03-16T17:23:30.105Z,2.52
2018-03-16T17:25:58.454Z,2.59
2018-03-16T17:28:26.820Z,2.46
2018-03-16T17:30:55.131Z,2.11
2018-03-16T17:33:23.490Z,2.22
2018-03-16T17:35:52.310Z,1.92
2018-03-16T17:38:20.652Z,1.91
2018-03-16T17:40:48.966Z,1.87
2018-03-16T17:43:17.470Z,2.15
2018-03-16T17:45:45.818Z,2.37
2018-03-16T17:48:14.341Z,2.23
2018-03-16T17:50:42.707Z,2.48
2018-03-16T17:53:11.806Z,2.14
2018-03-16T17:55:40.154Z,2.25
2018-03-16T17:58:08.527Z,1.96
2018-03-16T18:00:36.870Z,2.05
2018-03-16T18:03:05.190Z,1.83
2018-03-16T18:05:34.097Z,2.03
2018-03-16T18:08:02.451Z,1.96
2018-03-16T18:10:30.769Z,2.02
2018-03-16T18:12:59.368Z,1.88
2018-03-16T18:15:27.686Z,1.83
2018-03-16T18:17:56.060Z,1.68
2018-03-16T18:20:24.402Z,1.76
2018-03-16T18:22:52.747Z,1.98
2018-03-16T18:25:21.916Z,1.74
2018-03-16T18:27:50.493Z,1.56
2018-03-16T18:30:18.830Z,1.56
2018-03-16T18:32:47.895Z,1.63
2018-03-16T18:35:16.239Z,1.99
2018-03-16T18:37:44.545Z,1.70
2018-03-16T18:40:12.842Z,1.58
2018-03-16T18:42:41.986Z,1.67
2018-03-16T18:45:10.329Z,1.82
2018-03-16T18:47:39.437Z,1.82
2018-03-16T18:50:09.042Z,1.94
2018-03-16T18:52:37.387Z,1.49
2018-03-16T18:55:05.698Z,1.59
2018-03-16T18:57:34.068Z,1.51
2018-03-16T19:00:03.142Z,1.29
2018-03-16T19:02:31.499Z,1.35
2018-03-16T19:04:59.885Z,1.36
2018-03-16T19:07:28.987Z,1.62
2018-03-16T19:09:57.362Z,1.39
2018-03-16T19:12:26.291Z,1.28
2018-03-16T19:14:55.388Z,1.31
2018-03-16T19:17:23.861Z,1.18
2018-03-16T19:19:52.281Z,1.24
2018-03-16T19:22:20.627Z,1.34
2018-03-16T19:24:48.977Z,1.32
2018-03-16T19:27:17.583Z,1.48
2018-03-16T19:29:45.902Z,1.45
2018-03-16T19:32:14.240Z,1.26
2018-03-16T19:34:43.582Z,1.40
2018-03-16T19:37:12.030Z,1.48
2018-03-16T19:39:41.150Z,1.25
2018-03-16T19:42:09.545Z,1.19
2018-03-16T19:44:37.869Z,1.29
2018-03-16T19:47:07.048Z,1.29
2018-03-16T19:49:35.406Z,1.41
2018-03-16T19:52:03.718Z,1.58
2018-03-16T19:54:32.137Z,1.59
2018-03-16T19:57:00.543Z,1.60
2018-03-16T19:59:28.901Z,1.22
2018-03-16T20:01:57.239Z,1.13
2018-03-16T20:04:26.031Z,1.01
2018-03-16T20:06:54.368Z,1.10
2018-03-16T20:09:22.839Z,1.09
2018-03-16T20:11:51.204Z,1.01
2018-03-16T20:14:19.542Z,1.07
2018-03-16T20:16:47.854Z,0.88
2018-03-16T20:19:16.379Z,0.82
2018-03-16T20:21:44.708Z,1.04
2018-03-16T20:24:13.798Z,0.75
2018-03-16T20:26:42.908Z,0.70
2018-03-16T20:29:12.014Z,0.94
2018-03-16T20:31:40.599Z,0.67
2018-03-16T20:34:08.935Z,0.73
2018-03-16T20:36:37.254Z,0.95
2018-03-16T20:39:05.590Z,0.77
2018-03-16T20:41:34.516Z,0.73
2018-03-16T20:44:02.839Z,0.49
2018-03-16T20:46:31.161Z,0.43
2018-03-16T20:49:00.302Z,0.51
2018-03-16T20:51:28.632Z,0.43
2018-03-16T20:53:57.448Z,0.47
2018-03-16T20:56:25.806Z,0.51
2018-03-16T20:58:54.173Z,0.39
2018-03-16T21:01:23.285Z,0.53
2018-03-16T21:03:52.717Z,0.45
2018-03-16T21:06:21.056Z,0.38
2018-03-16T21:08:50.148Z,0.20
2018-03-16T21:11:19.308Z,0.34
2018-03-16T21:13:47.670Z,0.20
2018-03-16T21:16:16.175Z,0.19
2018-03-16T21:18:44.636Z,0.17
2018-03-16T21:21:13.011Z,0.19
2018-03-16T21:23:41.381Z,0.13
2018-03-16T21:26:09.990Z,0.36
2018-03-16T21:28:38.358Z,0.68
2018-03-16T21:31:06.721Z,0.64
2018-03-16T21:33:35.116Z,0.27
2018-03-16T21:36:03.470Z,0.31
2018-03-16T21:38:31.823Z,0.21
2018-03-16T21:41:00.208Z,0.26
2018-03-16T21:43:29.320Z,0.30
2018-03-16T21:45:57.694Z,0.16
2018-03-16T21:48:26.142Z,-0.05
2018-03-16T21:50:54.498Z,-0.09
2018-03-16T21:53:22.917Z,0.08
2018-03-16T21:55:51.267Z,0.03
2018-03-16T21:58:19.606Z,-0.15
2018-03-16T22:00:47.955Z,-0.08
2018-03-16T22:03:16.337Z,-0.11
2018-03-16T22:05:44.688Z,-0.27
2018-03-16T22:08:13.016Z,-0.07
2018-03-16T22:10:41.445Z,-0.21
2018-03-16T22:13:09.816Z,-0.04
2018-03-16T22:15:38.307Z,0.00
2018-03-16T22:18:06.729Z,-0.09
2018-03-16T22:20:35.097Z,-0.26
2018-03-16T22:23:04.221Z,0.00
2018-03-16T22:25:32.777Z,0.12
2018-03-16T22:28:02.132Z,-0.17
2018-03-16T22:30:30.511Z,-0.15
2018-03-16T22:32:59.000Z,-0.03
2018-03-16T22:35:27.337Z,-0.17
2018-03-16T22:37:55.691Z,-0.22
2018-03-16T22:40:24.036Z,-0.43
2018-03-16T22:42:52.738Z,-0.42
2018-03-16T22:45:21.154Z,-0.23
2018-03-16T22:47:50.302Z,-0.39
2018-03-16T22:50:18.726Z,-0.18
2018-03-16T22:52:47.403Z,-0.50
2018-03-16T22:55:16.654Z,-0.59
2018-03-16T22:57:45.025Z,-0.52
2018-03-16T23:00:13.361Z,-0.77
2018-03-16T23:02:41.767Z,-0.71
2018-03-16T23:05:10.070Z,-0.63
2018-03-16T23:07:38.478Z,-0.57
2018-03-16T23:10:06.975Z,-0.62
2018-03-16T23:12:35.455Z,-0.52
2018-03-16T23:15:03.827Z,-0.62
2018-03-16T23:17:32.258Z,-0.64
2018-03-16T23:20:00.643Z,-0.67
2018-03-16T23:22:29.030Z,-0.53
2018-03-16T23:24:57.520Z,-0.76
2018-03-16T23:27:25.862Z,-0.68
2018-03-16T23:29:54.249Z,-0.46
2018-03-16T23:32:22.653Z,-0.63
2018-03-16T23:34:51.010Z,-0.92
2018-03-16T23:37:19.342Z,-0.77
2018-03-16T23:39:47.887Z,-1.06
2018-03-16T23:42:16.195Z,-0.95
2018-03-16T23:44:44.534Z,-0.97
2018-03-16T23:47:12.929Z,-0.95
2018-03-16T23:49:41.306Z,-0.86
2018-03-16T23:52:09.690Z,-0.89
2018-03-16T23:54:38.051Z,-0.92
2018-03-16T23:57:06.392Z,-0.97
2018-03-16T23:59:34.751Z,-0.72
